KASE/ASE METAR and TAF weather

Enter ICAO airport designator
Station Type Date Time Source
KASE METAR 2018/10/21 05:53 UTC NOAA

KASE 210553Z AUTO 19006KT 10SM CLR 01/M05 A3043 RMK AO2 SLP245 T00111050 10122 20011 51003


Station Type Date Time Source
KASE Decoded METAR 2018/10/21 05:53 UTC NOAA

ASPEN-PITKIN COUNTY AIRPORT, CO, United States (KASE) 39-14N 106-52W 2354M
Oct 21, 2018 - 01:53 AM EDT / 2018.10.21 0553 UTC
Wind: from the S (190 degrees) at 7 MPH (6 KT):0
Visibility: 10 mile(s):0
Sky conditions: clear
Temperature: 34.0 F (1.1 C)
Windchill: 28 F (-2 C):1
Dew Point: 23.0 F (-5.0 C)
Relative Humidity: 63%
Pressure (altimeter): 30.43 in. Hg (1030 hPa)
Pressure tendency: 0.01 inches (0.3 hPa) higher than three hours ago
ob: KASE 210553Z AUTO 19006KT 10SM CLR 01/M05 A3043 RMK AO2 SLP245 T00111050 10122 20011 51003
cycle: 6

Station Type Date Time Source
KASE TAF 2018/10/21 06:39 UTC NOAA

TAF KASE 210536Z 2106/2206 20007KT P6SM SKC
FM211600 34007KT P6SM FEW080 FEW250
FM220100 21006KT P6SM FEW070 SCT250


Example: see airport list